Time;durP1;ratioP1;P1;durP2;ratioP2;P2;SDS_P1;SDS_P2;PMS_P1;PMS_P2;Temp;Humidity;BMP_temperature;BMP_pressure;BME280_temperature;BME280_humidity;BME280_pressure;Samples;Min_cycle;Max_cycle;Signal;HPM_P1;HPM_P2
2024/01/25 00:02:09;;;;;;;21.13;9.30;;;;;;;7.60;100.00;101851.91;6136576;28;20233;-72
2024/01/25 00:05:29;;;;;;;27.50;9.57;;;;;;;7.57;100.00;101846.75;6116467;28;20238;-73
2024/01/25 00:08:50;;;;;;;23.50;11.43;;;;;;;7.52;100.00;101838.97;6149626;28;20647;-72
2024/01/25 00:12:11;;;;;;;18.20;7.33;;;;;;;7.55;100.00;101832.56;6143981;28;20231;-72
2024/01/25 00:15:32;;;;;;;34.97;10.73;;;;;;;7.51;100.00;101823.81;6139375;28;20260;-72
2024/01/25 00:18:54;;;;;;;21.73;8.50;;;;;;;7.49;100.00;101832.94;6148641;28;20238;-71
2024/01/25 00:22:15;;;;;;;17.90;8.50;;;;;;;7.49;100.00;101823.06;6138723;28;20219;-73
2024/01/25 00:25:36;;;;;;;18.53;9.37;;;;;;;7.45;100.00;101836.78;6143782;28;20222;-72
2024/01/25 00:28:57;;;;;;;25.50;8.53;;;;;;;7.36;100.00;101823.91;6149599;28;20238;-73
2024/01/25 00:32:18;;;;;;;28.20;9.90;;;;;;;7.37;100.00;101839.03;6139200;28;20235;-72
2024/01/25 00:35:41;;;;;;;32.90;8.87;;;;;;;7.44;100.00;101825.19;6138141;28;20309;-72
2024/01/25 00:39:03;;;;;;;19.27;8.33;;;;;;;7.50;100.00;101856.13;6151352;28;20234;-72
2024/01/25 00:42:24;;;;;;;25.67;8.27;;;;;;;7.50;100.00;101886.50;6140695;28;20246;-72
2024/01/25 00:45:46;;;;;;;17.50;8.87;;;;;;;7.43;100.00;101877.09;6140295;28;20313;-72
2024/01/25 00:49:07;;;;;;;23.50;7.60;;;;;;;7.46;100.00;101876.91;6140999;28;20249;-72
2024/01/25 00:52:30;;;;;;;24.80;8.90;;;;;;;7.50;100.00;101878.47;6141263;28;20262;-71
2024/01/25 00:55:52;;;;;;;31.47;8.83;;;;;;;7.49;100.00;101870.50;6143042;28;20226;-72
2024/01/25 00:59:13;;;;;;;25.67;9.57;;;;;;;7.54;100.00;101863.91;6150186;28;20230;-72
2024/01/25 01:02:39;;;;;;;20.23;8.07;;;;;;;7.48;100.00;101866.97;6127601;28;20238;-72
2024/01/25 01:06:01;;;;;;;22.57;9.03;;;;;;;7.56;100.00;101866.47;6145451;28;20242;-71
2024/01/25 01:09:23;;;;;;;35.97;10.23;;;;;;;7.54;100.00;101868.41;6146550;28;20235;-72
2024/01/25 01:12:44;;;;;;;19.43;9.23;;;;;;;7.46;100.00;101874.22;6142893;28;20227;-71
2024/01/25 01:16:05;;;;;;;21.00;8.73;;;;;;;7.51;100.00;101882.84;6137990;28;20254;-72
2024/01/25 01:19:26;;;;;;;21.37;9.40;;;;;;;7.54;100.00;101873.75;6148919;28;20234;-71
2024/01/25 01:22:47;;;;;;;19.43;7.70;;;;;;;7.50;100.00;101878.47;6148616;28;20246;-71
2024/01/25 01:26:09;;;;;;;23.03;8.00;;;;;;;7.52;100.00;101881.03;6148470;28;20332;-71
2024/01/25 01:29:30;;;;;;;23.77;8.73;;;;;;;7.42;100.00;101883.41;6149614;28;20230;-71
2024/01/25 01:32:51;;;;;;;18.20;7.20;;;;;;;7.43;100.00;101903.03;6131274;28;20258;-71
2024/01/25 01:36:12;;;;;;;28.97;8.07;;;;;;;7.40;100.00;101882.66;6140958;28;20230;-72
2024/01/25 01:39:34;;;;;;;22.57;8.57;;;;;;;7.34;100.00;101876.78;6146832;28;20230;-72
2024/01/25 01:43:01;;;;;;;29.57;8.87;;;;;;;7.37;100.00;101879.25;6146254;28;20238;-71
2024/01/25 01:46:32;;;;;;;27.90;10.33;;;;;;;7.36;100.00;101901.69;6136525;28;20246;-71
2024/01/25 01:49:53;;;;;;;21.37;7.57;;;;;;;7.45;100.00;101893.94;6147629;28;20238;-71
2024/01/25 01:53:14;;;;;;;27.70;8.90;;;;;;;7.49;100.00;101905.38;6149162;28;20229;-71
2024/01/25 01:56:36;;;;;;;27.63;8.70;;;;;;;7.51;100.00;101928.47;6135913;28;20226;-72
2024/01/25 02:00:00;;;;;;;21.53;8.40;;;;;;;7.50;100.00;101923.19;6147845;28;20238;-72
2024/01/25 02:03:21;;;;;;;25.87;9.10;;;;;;;7.54;100.00;101941.72;6140088;28;20239;-72
2024/01/25 02:06:43;;;;;;;26.27;8.87;;;;;;;7.54;100.00;101922.94;6135357;28;20507;-71
2024/01/25 02:10:05;;;;;;;23.00;8.90;;;;;;;7.52;100.00;101923.97;6148605;28;20262;-71
2024/01/25 02:13:26;;;;;;;18.70;8.33;;;;;;;7.55;100.00;101924.63;6155893;28;20238;-71
2024/01/25 02:16:48;;;;;;;19.97;8.27;;;;;;;7.55;100.00;101919.28;6135953;28;20231;-71
2024/01/25 02:20:09;;;;;;;17.30;8.17;;;;;;;7.57;100.00;101916.53;6142201;28;20601;-72
2024/01/25 02:23:32;;;;;;;21.37;9.43;;;;;;;7.52;100.00;101945.44;6150523;28;20230;-71
2024/01/25 02:26:53;;;;;;;22.23;8.40;;;;;;;7.55;100.00;101962.19;6142314;28;20238;-72
2024/01/25 02:30:14;;;;;;;28.70;5.97;;;;;;;7.57;100.00;101941.50;6138843;28;20234;-70
2024/01/25 02:33:35;;;;;;;15.37;6.90;;;;;;;7.54;100.00;101949.75;6142787;28;20230;-71
2024/01/25 02:36:56;;;;;;;23.40;7.57;;;;;;;7.55;100.00;101943.41;6144769;28;20238;-72
2024/01/25 02:40:18;;;;;;;21.03;8.77;;;;;;;7.62;100.00;101949.28;6149073;28;20231;-71
2024/01/25 02:43:39;;;;;;;18.53;7.83;;;;;;;7.61;100.00;101948.44;6157372;28;20234;-72
2024/01/25 02:47:01;;;;;;;21.30;6.17;;;;;;;7.68;100.00;101940.88;6115031;28;20230;-71
2024/01/25 02:50:22;;;;;;;17.83;7.27;;;;;;;7.69;100.00;101939.94;6142876;28;20254;-71
2024/01/25 02:53:43;;;;;;;20.63;8.77;;;;;;;7.68;100.00;101941.75;6152606;28;20226;-71
2024/01/25 02:57:05;;;;;;;25.93;8.13;;;;;;;7.72;100.00;101956.69;6143628;28;20227;-71
2024/01/25 03:00:27;;;;;;;30.10;8.60;;;;;;;7.71;100.00;101954.13;6149491;28;20235;-70
2024/01/25 03:03:47;;;;;;;20.60;9.77;;;;;;;7.71;100.00;101963.03;6149336;28;20255;-71
2024/01/25 03:07:08;;;;;;;19.23;7.97;;;;;;;7.73;100.00;101981.72;6140749;28;20227;-71
2024/01/25 03:10:30;;;;;;;19.50;7.23;;;;;;;7.69;100.00;101970.31;6146369;28;20230;-71
2024/01/25 03:13:52;;;;;;;24.37;6.97;;;;;;;7.66;100.00;101973.16;6151882;28;20230;-72
2024/01/25 03:17:13;;;;;;;21.47;8.53;;;;;;;7.67;100.00;101979.41;6132009;28;20227;-72
2024/01/25 03:20:34;;;;;;;20.93;7.33;;;;;;;7.67;100.00;101982.09;6148216;28;20226;-71
2024/01/25 03:23:55;;;;;;;20.43;6.43;;;;;;;7.61;100.00;101994.06;6159040;28;20506;-73
2024/01/25 03:27:16;;;;;;;22.43;9.33;;;;;;;7.66;100.00;102000.00;6144478;28;20230;-73
2024/01/25 03:30:38;;;;;;;21.50;8.50;;;;;;;7.64;100.00;102004.59;6149042;28;20230;-73
2024/01/25 03:33:59;;;;;;;25.60;10.33;;;;;;;7.65;100.00;102008.16;6150379;28;20238;-72
2024/01/25 03:37:20;;;;;;;13.87;6.87;;;;;;;7.67;100.00;102001.75;6146106;28;20239;-72
2024/01/25 03:40:41;;;;;;;27.97;9.23;;;;;;;7.63;100.00;102000.22;6143461;28;20238;-73
2024/01/25 03:44:02;;;;;;;20.10;7.93;;;;;;;7.62;100.00;102011.00;6150301;28;20250;-73
2024/01/25 03:47:24;;;;;;;19.63;9.33;;;;;;;7.63;100.00;102010.94;6137850;28;20234;-72
2024/01/25 03:50:45;;;;;;;22.03;8.33;;;;;;;7.61;100.00;102028.06;6141331;28;21008;-73
2024/01/25 03:54:07;;;;;;;20.00;7.83;;;;;;;7.63;100.00;102029.72;6150381;28;20317;-71
2024/01/25 03:57:28;;;;;;;21.03;8.63;;;;;;;7.65;100.00;102040.34;6118057;28;20227;-72
2024/01/25 04:00:49;;;;;;;20.33;7.63;;;;;;;7.64;100.00;102063.63;6145127;28;20494;-72
2024/01/25 04:04:12;;;;;;;19.97;6.87;;;;;;;7.66;100.00;102064.41;6151385;28;20234;-73
2024/01/25 04:07:33;;;;;;;17.60;6.70;;;;;;;7.68;100.00;102069.69;6143042;28;20279;-73
2024/01/25 04:10:54;;;;;;;26.03;8.03;;;;;;;7.70;100.00;102060.59;6144388;28;20333;-72
2024/01/25 04:14:16;;;;;;;18.70;7.80;;;;;;;7.75;100.00;102069.25;6151182;28;20317;-72
2024/01/25 04:17:37;;;;;;;23.60;8.13;;;;;;;7.74;100.00;102066.69;6141301;28;20253;-72
2024/01/25 04:21:01;;;;;;;16.97;7.17;;;;;;;7.70;100.00;102082.06;6138970;28;20231;-71
2024/01/25 04:24:21;;;;;;;19.83;8.47;;;;;;;7.67;100.00;102070.66;6153230;28;20235;-72
2024/01/25 04:27:42;;;;;;;25.57;8.13;;;;;;;7.66;100.00;102068.91;6150446;28;20270;-71
2024/01/25 04:31:04;;;;;;;24.30;7.33;;;;;;;7.71;100.00;102094.56;6144349;28;20238;-72
2024/01/25 04:34:24;;;;;;;12.60;7.03;;;;;;;7.67;100.00;102084.94;6148823;28;20234;-72
2024/01/25 04:37:47;;;;;;;15.30;6.03;;;;;;;7.71;100.00;102101.72;6145374;28;20605;-71
2024/01/25 04:41:08;;;;;;;15.20;6.43;;;;;;;7.70;100.00;102098.16;6143117;28;20517;-72
2024/01/25 04:44:29;;;;;;;13.60;7.07;;;;;;;7.69;100.00;102107.19;6149906;28;20226;-72
2024/01/25 04:47:50;;;;;;;15.67;6.60;;;;;;;7.67;100.00;102103.72;6143781;28;20238;-72
2024/01/25 04:51:16;;;;;;;28.67;10.70;;;;;;;7.70;100.00;102122.31;6142942;28;20230;-72
2024/01/25 04:54:38;;;;;;;18.73;6.93;;;;;;;7.66;100.00;102115.41;6154617;28;20328;-72
2024/01/25 04:57:59;;;;;;;21.90;7.93;;;;;;;7.69;100.00;102123.28;6132180;28;20243;-72
2024/01/25 05:01:20;;;;;;;20.30;7.03;;;;;;;7.69;100.00;102109.00;6121746;28;20234;-72
2024/01/25 05:04:41;;;;;;;18.80;6.93;;;;;;;7.56;100.00;102124.06;6152221;28;20227;-73
2024/01/25 05:08:02;;;;;;;20.13;9.00;;;;;;;7.55;100.00;102120.50;6145357;28;20238;-72
2024/01/25 05:11:24;;;;;;;18.60;7.73;;;;;;;7.57;100.00;102115.06;6140044;28;20302;-71
2024/01/25 05:14:45;;;;;;;16.63;7.73;;;;;;;7.55;100.00;102136.59;6150900;28;20234;-73
2024/01/25 05:18:07;;;;;;;22.23;7.40;;;;;;;7.55;100.00;102125.03;6146268;28;20225;-73
2024/01/25 05:21:28;;;;;;;17.87;7.90;;;;;;;7.52;100.00;102123.38;6144509;28;20234;-72
2024/01/25 05:24:49;;;;;;;22.70;8.43;;;;;;;7.47;100.00;102140.69;6156206;28;20519;-72
2024/01/25 05:28:12;;;;;;;24.93;6.97;;;;;;;7.44;100.00;102163.19;6151388;28;20326;-73
2024/01/25 05:31:33;;;;;;;19.77;6.77;;;;;;;7.47;100.00;102160.31;6142131;28;20317;-73
2024/01/25 05:34:54;;;;;;;22.60;7.67;;;;;;;7.46;100.00;102153.22;6154002;28;20226;-72
2024/01/25 05:38:15;;;;;;;26.10;9.07;;;;;;;7.36;100.00;102170.78;6147416;28;20598;-72
2024/01/25 05:41:36;;;;;;;12.50;6.00;;;;;;;7.45;100.00;102158.69;6139441;28;20234;-71
2024/01/25 05:44:58;;;;;;;16.47;7.17;;;;;;;7.43;100.00;102164.13;6156317;28;20242;-72
2024/01/25 05:48:19;;;;;;;20.33;6.30;;;;;;;7.42;100.00;102153.47;6146200;28;20234;-72
2024/01/25 05:51:40;;;;;;;15.93;7.47;;;;;;;7.31;100.00;102155.88;6141570;28;20226;-72
2024/01/25 05:55:01;;;;;;;21.83;8.23;;;;;;;7.31;100.00;102164.81;6148479;28;20321;-72
2024/01/25 05:58:22;;;;;;;25.30;7.13;;;;;;;7.36;100.00;102180.66;6151491;28;20313;-72
2024/01/25 06:01:44;;;;;;;26.97;7.30;;;;;;;7.33;100.00;102187.03;6135344;28;20227;-71
2024/01/25 06:05:05;;;;;;;20.07;7.80;;;;;;;7.42;100.00;102175.81;6143859;28;20230;-72
2024/01/25 06:08:26;;;;;;;27.97;7.70;;;;;;;7.46;100.00;102193.47;6147414;28;20230;-72
2024/01/25 06:11:47;;;;;;;21.27;7.60;;;;;;;7.50;100.00;102192.34;6142611;28;20234;-72
2024/01/25 06:15:09;;;;;;;17.07;8.23;;;;;;;7.54;100.00;102191.22;6142590;28;20231;-70
2024/01/25 06:18:32;;;;;;;25.93;7.70;;;;;;;7.56;100.00;102197.38;6147794;28;20321;-72
2024/01/25 06:21:52;;;;;;;18.87;8.70;;;;;;;7.53;100.00;102205.59;6141252;28;20852;-72
2024/01/25 06:25:14;;;;;;;21.83;6.53;;;;;;;7.43;100.00;102209.72;6146702;28;20324;-71
2024/01/25 06:28:35;;;;;;;22.37;6.87;;;;;;;7.41;100.00;102219.66;6149092;28;20238;-72
2024/01/25 06:31:56;;;;;;;22.70;8.37;;;;;;;7.47;100.00;102227.38;6132351;28;20255;-74
2024/01/25 06:35:18;;;;;;;16.77;7.47;;;;;;;7.48;100.00;102226.44;6138142;28;20226;-73
2024/01/25 06:38:39;;;;;;;20.53;7.17;;;;;;;7.52;100.00;102233.38;6144989;28;20231;-74
2024/01/25 06:42:00;;;;;;;15.40;6.07;;;;;;;7.55;100.00;102240.41;6145737;28;20230;-71
2024/01/25 06:45:21;;;;;;;31.27;9.30;;;;;;;7.54;100.00;102249.38;6142675;28;20234;-72
2024/01/25 06:48:42;;;;;;;25.67;9.00;;;;;;;7.49;100.00;102248.78;6145927;28;20657;-72
2024/01/25 06:52:05;;;;;;;26.67;8.23;;;;;;;7.44;100.00;102254.41;6139457;28;22277;-70
2024/01/25 06:55:26;;;;;;;24.27;7.30;;;;;;;7.49;100.00;102267.56;6143773;28;20890;-69
2024/01/25 06:58:47;;;;;;;16.63;7.10;;;;;;;7.51;100.00;102260.31;6153616;28;20234;-70
2024/01/25 07:02:08;;;;;;;19.83;7.47;;;;;;;7.47;100.00;102270.31;6142924;28;20222;-69
2024/01/25 07:05:33;;;;;;;14.43;7.67;;;;;;;7.45;100.00;102282.94;6139423;28;20231;-72
2024/01/25 07:08:55;;;;;;;15.70;6.70;;;;;;;7.44;100.00;102300.00;6148121;28;20892;-72
2024/01/25 07:12:16;;;;;;;20.37;8.23;;;;;;;7.45;100.00;102306.25;6139197;28;22906;-72
2024/01/25 07:15:37;;;;;;;25.47;7.17;;;;;;;7.46;100.00;102308.84;6140301;28;20234;-69
2024/01/25 07:18:58;;;;;;;15.10;6.70;;;;;;;7.49;100.00;102318.53;6143395;28;20344;-70
2024/01/25 07:22:18;;;;;;;16.27;8.03;;;;;;;7.42;100.00;102327.84;6141422;28;20626;-69
2024/01/25 07:25:41;;;;;;;22.10;7.93;;;;;;;7.40;100.00;102327.06;6147937;28;20230;-74
2024/01/25 07:29:02;;;;;;;20.80;7.60;;;;;;;7.42;100.00;102322.50;6150785;28;20317;-71
2024/01/25 07:32:24;;;;;;;25.53;8.93;;;;;;;7.37;100.00;102332.56;6140848;28;20226;-70
2024/01/25 07:35:46;;;;;;;16.83;6.17;;;;;;;7.35;100.00;102329.09;6148802;28;20766;-70
2024/01/25 07:39:08;;;;;;;19.17;6.37;;;;;;;7.40;100.00;102327.94;6158753;28;20223;-72
2024/01/25 07:42:30;;;;;;;23.70;7.37;;;;;;;7.45;100.00;102330.38;6153637;28;20234;-71
2024/01/25 07:45:51;;;;;;;19.47;7.63;;;;;;;7.47;100.00;102331.19;6137559;28;20230;-72
2024/01/25 07:49:12;;;;;;;16.90;6.03;;;;;;;7.40;100.00;102327.94;6152813;28;20230;-71
2024/01/25 07:52:33;;;;;;;21.70;7.57;;;;;;;7.32;100.00;102326.59;6150967;28;20561;-70
2024/01/25 07:55:54;;;;;;;22.07;8.90;;;;;;;7.37;100.00;102328.09;6153814;28;20235;-71
2024/01/25 07:59:16;;;;;;;24.20;7.40;;;;;;;7.31;100.00;102335.59;6156899;28;20510;-69
2024/01/25 08:02:40;;;;;;;20.43;9.27;;;;;;;7.40;100.00;102336.00;6142282;28;22468;-72
2024/01/25 08:06:01;;;;;;;23.33;7.17;;;;;;;7.41;100.00;102340.38;6139595;28;20258;-72
2024/01/25 08:09:22;;;;;;;24.50;8.50;;;;;;;7.44;100.00;102336.69;6150591;28;20838;-71
2024/01/25 08:12:43;;;;;;;17.67;6.07;;;;;;;7.43;100.00;102340.31;6156319;28;20230;-72
2024/01/25 08:16:10;;;;;;;17.70;8.57;;;;;;;7.47;100.00;102347.28;6159967;28;20227;-71
2024/01/25 08:19:31;;;;;;;17.87;6.30;;;;;;;7.55;100.00;102350.41;6157408;28;20235;-71
2024/01/25 08:22:52;;;;;;;22.90;8.77;;;;;;;7.53;100.00;102358.53;6154000;28;20230;-69
2024/01/25 08:26:14;;;;;;;17.30;7.73;;;;;;;7.53;100.00;102371.09;6158154;28;20672;-74
2024/01/25 08:29:35;;;;;;;18.87;8.03;;;;;;;7.54;100.00;102360.28;6160339;28;20234;-71
2024/01/25 08:32:57;;;;;;;24.23;7.67;;;;;;;7.50;100.00;102361.38;6148065;28;20644;-71
2024/01/25 08:36:18;;;;;;;17.63;7.10;;;;;;;7.56;100.00;102358.38;6155660;28;20219;-73
2024/01/25 08:39:39;;;;;;;19.67;6.70;;;;;;;7.55;100.00;102356.63;6162559;28;20238;-73
2024/01/25 08:43:00;;;;;;;20.43;6.57;;;;;;;7.58;100.00;102369.03;6158058;28;20628;-71
2024/01/25 08:46:21;;;;;;;11.33;5.83;;;;;;;7.60;100.00;102359.94;6149508;28;20238;-71
2024/01/25 08:49:43;;;;;;;35.60;9.27;;;;;;;7.60;100.00;102369.81;6159168;28;20258;-72
2024/01/25 08:53:05;;;;;;;22.23;8.03;;;;;;;7.65;100.00;102368.63;6154779;28;20668;-73
2024/01/25 08:56:25;;;;;;;16.77;6.73;;;;;;;7.74;100.00;102372.66;6143744;28;20769;-74
2024/01/25 08:59:46;;;;;;;19.90;7.10;;;;;;;7.77;100.00;102369.78;6156521;28;20261;-74
2024/01/25 09:03:07;;;;;;;14.60;5.47;;;;;;;7.59;100.00;102370.78;6150943;28;20250;-72
2024/01/25 09:06:30;;;;;;;20.80;7.93;;;;;;;7.65;100.00;102383.88;6151109;28;20530;-74
2024/01/25 09:09:51;;;;;;;30.37;9.53;;;;;;;7.70;100.00;102382.66;6151778;28;20239;-73
2024/01/25 09:13:12;;;;;;;20.00;7.53;;;;;;;7.77;100.00;102380.53;6150639;28;20238;-73
2024/01/25 09:16:33;;;;;;;24.03;7.93;;;;;;;7.83;100.00;102390.94;6139451;28;20600;-73
2024/01/25 09:19:54;;;;;;;24.30;7.33;;;;;;;7.74;100.00;102384.22;6153922;28;21757;-73
2024/01/25 09:23:17;;;;;;;22.77;7.10;;;;;;;7.70;100.00;102404.13;6155115;28;20235;-72
2024/01/25 09:26:38;;;;;;;19.17;6.67;;;;;;;7.77;100.00;102397.50;6146256;28;20507;-73
2024/01/25 09:29:58;;;;;;;20.23;8.73;;;;;;;7.77;100.00;102407.38;6169253;28;20225;-74
2024/01/25 09:33:19;;;;;;;23.40;7.60;;;;;;;7.85;100.00;102415.88;6157121;28;20703;-74
2024/01/25 09:36:40;;;;;;;21.40;8.20;;;;;;;7.91;100.00;102415.56;6148526;28;20227;-72
2024/01/25 09:40:03;;;;;;;28.47;7.87;;;;;;;7.84;100.00;102422.22;6159676;28;20235;-74
2024/01/25 09:43:24;;;;;;;20.67;6.20;;;;;;;7.81;100.00;102433.97;6151478;28;20777;-75
2024/01/25 09:46:46;;;;;;;16.70;8.00;;;;;;;7.80;100.00;102436.75;6152051;28;20269;-74
2024/01/25 09:50:08;;;;;;;18.93;8.57;;;;;;;7.70;100.00;102425.59;6153488;28;20558;-73
2024/01/25 09:53:33;;;;;;;15.37;7.13;;;;;;;7.85;100.00;102453.47;6157767;28;20492;-73
2024/01/25 09:56:56;;;;;;;16.20;6.30;;;;;;;7.97;100.00;102447.44;6156973;28;20318;-74
2024/01/25 10:00:18;;;;;;;27.03;7.10;;;;;;;7.94;100.00;102447.63;6157744;28;20317;-73
2024/01/25 10:03:41;;;;;;;16.80;5.70;;;;;;;7.92;100.00;102463.81;6152181;28;20227;-74
2024/01/25 10:07:01;;;;;;;24.33;7.43;;;;;;;7.93;100.00;102470.91;6150026;28;20527;-74
2024/01/25 10:10:22;;;;;;;23.83;7.60;;;;;;;7.85;100.00;102465.09;6159966;28;20242;-73
2024/01/25 10:13:45;;;;;;;19.60;7.10;;;;;;;7.87;100.00;102463.19;6154485;28;20230;-72
2024/01/25 10:17:06;;;;;;;21.90;8.40;;;;;;;7.88;100.00;102462.25;6141129;28;20238;-73
2024/01/25 10:20:27;;;;;;;23.23;7.03;;;;;;;7.88;100.00;102467.63;6149309;28;20242;-74
2024/01/25 10:23:51;;;;;;;23.33;6.30;;;;;;;7.88;100.00;102481.06;6157123;28;20467;-74
2024/01/25 10:27:12;;;;;;;12.60;5.60;;;;;;;7.90;100.00;102481.84;6150091;28;20234;-75
2024/01/25 10:30:36;;;;;;;20.47;6.87;;;;;;;7.88;100.00;102481.06;6144142;28;20227;-74
2024/01/25 10:33:58;;;;;;;18.83;8.20;;;;;;;7.89;100.00;102476.53;6161630;28;20329;-74
2024/01/25 10:37:21;;;;;;;14.23;6.43;;;;;;;7.97;100.00;102485.03;6150906;28;20230;-74
2024/01/25 10:40:43;;;;;;;16.43;6.10;;;;;;;7.83;100.00;102483.09;6146669;28;20234;-76
2024/01/25 10:44:06;;;;;;;14.83;7.30;;;;;;;7.85;100.00;102480.31;6157660;28;20254;-74
2024/01/25 10:47:34;;;;;;;16.90;6.73;;;;;;;7.88;100.00;102478.38;6137918;28;20230;-72
2024/01/25 10:50:55;;;;;;;23.20;6.37;;;;;;;7.99;100.00;102473.28;6152016;28;20245;-73
2024/01/25 10:54:17;;;;;;;15.93;5.93;;;;;;;7.90;100.00;102471.09;6149747;28;20230;-70
2024/01/25 10:57:40;;;;;;;14.27;5.83;;;;;;;8.01;100.00;102475.88;6152126;28;20234;-70
2024/01/25 11:01:01;;;;;;;14.60;7.40;;;;;;;8.04;100.00;102478.41;6155124;28;20581;-69
2024/01/25 11:04:24;;;;;;;18.37;6.10;;;;;;;8.09;100.00;102474.53;6166366;28;20242;-70
2024/01/25 11:07:48;;;;;;;17.77;7.20;;;;;;;8.00;100.00;102479.53;6158439;28;20226;-70
2024/01/25 11:11:11;;;;;;;17.27;5.77;;;;;;;8.06;100.00;102487.25;6151471;28;20242;-70
2024/01/25 11:14:31;;;;;;;19.07;6.83;;;;;;;8.12;100.00;102475.31;6172234;28;20265;-69
2024/01/25 11:17:54;;;;;;;18.60;9.07;;;;;;;8.21;100.00;102481.09;6146880;28;20726;-71
2024/01/25 11:21:26;;;;;;;15.50;5.70;;;;;;;8.18;100.00;102480.38;6139027;28;20525;-70
2024/01/25 11:24:48;;;;;;;16.37;6.53;;;;;;;8.14;100.00;102481.47;6153961;28;20246;-70
2024/01/25 11:28:09;;;;;;;14.77;5.33;;;;;;;8.12;100.00;102488.75;6148728;28;20325;-72
2024/01/25 11:31:30;;;;;;;23.33;6.37;;;;;;;8.09;100.00;102501.38;6138560;28;20223;-68
2024/01/25 11:34:58;;;;;;;16.57;7.37;;;;;;;8.07;100.00;102484.47;6153637;28;20229;-71
2024/01/25 11:38:20;;;;;;;14.20;4.90;;;;;;;8.07;100.00;102486.31;6147275;28;20222;-70
2024/01/25 11:41:43;;;;;;;16.93;5.30;;;;;;;8.20;100.00;102473.13;6142201;28;20254;-70
2024/01/25 11:45:06;;;;;;;21.13;6.87;;;;;;;8.25;100.00;102477.31;6153722;28;20231;-68
2024/01/25 11:48:28;;;;;;;20.47;6.47;;;;;;;8.29;100.00;102476.19;6147883;28;20570;-71
2024/01/25 11:51:49;;;;;;;23.30;7.53;;;;;;;8.09;100.00;102471.84;6159002;28;20239;-71
2024/01/25 11:55:11;;;;;;;18.20;5.80;;;;;;;8.15;100.00;102478.72;6156723;28;20242;-70
2024/01/25 11:58:32;;;;;;;12.20;6.03;;;;;;;8.16;100.00;102482.25;6156086;28;20234;-71
2024/01/25 12:01:53;;;;;;;29.67;8.70;;;;;;;8.08;100.00;102472.81;6150090;28;20238;-71
2024/01/25 12:05:14;;;;;;;12.90;6.90;;;;;;;8.11;100.00;102477.16;6156072;28;20802;-71
2024/01/25 12:08:38;;;;;;;20.03;6.77;;;;;;;8.11;100.00;102487.03;6134559;28;20230;-71
2024/01/25 12:12:01;;;;;;;14.87;6.97;;;;;;;8.07;100.00;102471.06;6154037;28;20774;-70
2024/01/25 12:15:22;;;;;;;20.13;6.33;;;;;;;8.05;100.00;102467.59;6150885;28;20230;-68
2024/01/25 12:18:44;;;;;;;18.53;5.37;;;;;;;8.09;100.00;102469.16;6156801;28;20866;-70
2024/01/25 12:22:05;;;;;;;17.30;6.30;;;;;;;8.18;100.00;102462.44;6152987;28;20242;-71
2024/01/25 12:25:26;;;;;;;19.67;5.60;;;;;;;8.22;100.00;102479.28;6151799;28;20677;-71
2024/01/25 12:28:49;;;;;;;15.60;5.83;;;;;;;8.16;100.00;102475.06;6166054;28;20242;-71
2024/01/25 12:32:10;;;;;;;16.30;6.40;;;;;;;8.16;100.00;102484.94;6147200;28;20223;-71
2024/01/25 12:35:33;;;;;;;21.00;6.97;;;;;;;7.97;100.00;102501.16;6152076;28;20301;-70
2024/01/25 12:38:53;;;;;;;14.97;6.23;;;;;;;8.03;100.00;102495.50;6166850;28;20226;-74
2024/01/25 12:42:14;;;;;;;19.87;5.67;;;;;;;7.97;100.00;102482.34;6158068;28;20257;-72
2024/01/25 12:45:37;;;;;;;13.07;4.77;;;;;;;8.04;100.00;102486.47;6154972;28;20226;-70
2024/01/25 12:48:58;;;;;;;14.10;5.33;;;;;;;8.16;100.00;102487.63;6160295;28;20262;-69
2024/01/25 12:52:19;;;;;;;20.37;6.97;;;;;;;8.17;100.00;102492.94;6140901;28;20593;-73
2024/01/25 12:55:40;;;;;;;7.27;4.07;;;;;;;8.08;100.00;102494.28;6149765;28;20519;-69
2024/01/25 12:59:01;;;;;;;18.17;4.53;;;;;;;8.15;100.00;102497.53;6159446;28;20250;-69
2024/01/25 13:02:23;;;;;;;13.47;5.97;;;;;;;8.19;100.00;102493.72;6148175;28;22566;-70
2024/01/25 13:05:44;;;;;;;12.30;5.40;;;;;;;8.26;100.00;102486.25;6158072;28;20235;-69
2024/01/25 13:09:05;;;;;;;8.57;5.07;;;;;;;8.18;100.00;102493.81;6146713;28;20222;-73
2024/01/25 13:12:26;;;;;;;19.97;5.37;;;;;;;8.26;100.00;102492.47;6145659;28;20230;-73
2024/01/25 13:15:47;;;;;;;11.93;4.77;;;;;;;8.15;100.00;102493.97;6152960;28;20935;-68
2024/01/25 13:19:11;;;;;;;17.27;5.40;;;;;;;8.18;100.00;102481.22;6159429;28;20218;-69
2024/01/25 13:22:33;;;;;;;12.03;4.33;;;;;;;8.21;100.00;102486.44;6147976;28;20242;-73
2024/01/25 13:25:53;;;;;;;12.10;5.70;;;;;;;8.23;100.00;102473.81;6154838;28;20238;-73
2024/01/25 13:29:14;;;;;;;16.83;4.87;;;;;;;8.21;100.00;102473.03;6159909;28;20234;-75
2024/01/25 13:32:35;;;;;;;13.27;5.10;;;;;;;8.22;100.00;102481.97;6148310;28;20238;-69
2024/01/25 13:35:58;;;;;;;10.63;4.87;;;;;;;8.14;100.00;102493.09;6152079;28;20321;-71
2024/01/25 13:39:19;;;;;;;17.20;4.97;;;;;;;8.25;100.00;102490.75;6160819;28;20254;-71
2024/01/25 13:42:40;;;;;;;13.30;5.03;;;;;;;8.34;100.00;102490.25;6152847;28;20241;-75
2024/01/25 13:46:01;;;;;;;13.23;5.80;;;;;;;8.43;100.00;102500.50;6150243;28;20233;-72
2024/01/25 13:49:22;;;;;;;14.00;5.17;;;;;;;8.49;100.00;102491.25;6158851;28;20234;-71
2024/01/25 13:52:45;;;;;;;16.43;6.90;;;;;;;8.47;100.00;102487.78;6152571;28;20321;-73
2024/01/25 13:56:06;;;;;;;13.67;5.43;;;;;;;8.53;100.00;102485.59;6155885;28;20230;-70
2024/01/25 13:59:27;;;;;;;15.17;5.03;;;;;;;8.65;100.00;102478.72;6163725;28;20622;-72
2024/01/25 14:02:48;;;;;;;12.37;5.17;;;;;;;8.77;100.00;102480.72;6148499;28;20242;-72
2024/01/25 14:06:09;;;;;;;12.57;5.33;;;;;;;8.75;100.00;102482.63;6152444;28;20256;-74
2024/01/25 14:09:32;;;;;;;11.90;4.60;;;;;;;9.12;100.00;102484.09;6158575;28;20258;-73
2024/01/25 14:12:52;;;;;;;15.23;5.73;;;;;;;9.29;100.00;102482.19;6146579;28;20249;-73
2024/01/25 14:16:16;;;;;;;12.57;5.57;;;;;;;9.54;100.00;102471.72;6146512;28;20257;-70
2024/01/25 14:19:37;;;;;;;12.10;5.00;;;;;;;9.98;100.00;102481.66;6157807;28;20789;-70
2024/01/25 14:22:58;;;;;;;16.53;4.97;;;;;;;9.83;100.00;102474.50;6151780;28;20238;-73
2024/01/25 14:26:20;;;;;;;14.73;5.07;;;;;;;9.77;100.00;102474.84;6154449;28;20230;-73
2024/01/25 14:29:41;;;;;;;15.33;6.60;;;;;;;9.74;100.00;102475.94;6160005;28;20234;-71
2024/01/25 14:33:03;;;;;;;8.53;4.43;;;;;;;9.62;100.00;102469.44;6155321;28;20320;-73
2024/01/25 14:36:24;;;;;;;8.07;4.77;;;;;;;9.52;100.00;102473.63;6158638;28;20238;-72
2024/01/25 14:39:45;;;;;;;15.07;5.47;;;;;;;9.36;100.00;102482.69;6164166;28;20254;-71
2024/01/25 14:43:08;;;;;;;12.97;4.27;;;;;;;9.21;100.00;102479.06;6160985;28;20782;-72
2024/01/25 14:46:29;;;;;;;10.40;5.07;;;;;;;8.90;100.00;102473.69;6156903;28;20628;-71
2024/01/25 14:49:51;;;;;;;9.40;3.93;;;;;;;8.88;100.00;102478.28;6159914;28;20234;-69
2024/01/25 14:53:13;;;;;;;11.73;4.77;;;;;;;8.84;100.00;102474.88;6457597;23;20240;-70
2024/01/25 14:56:34;;;;;;;11.00;4.53;;;;;;;8.79;100.00;102479.69;6189886;28;20593;-71
2024/01/25 14:59:56;;;;;;;12.93;3.83;;;;;;;8.52;100.00;102477.63;6213561;28;20237;-71
2024/01/25 15:03:17;;;;;;;17.50;5.63;;;;;;;8.42;100.00;102490.72;6202402;28;20237;-71
2024/01/25 15:06:38;;;;;;;13.10;4.37;;;;;;;8.42;100.00;102485.34;6193717;28;20241;-73
2024/01/25 15:09:59;;;;;;;15.93;7.07;;;;;;;8.44;100.00;102493.31;6207661;28;21859;-72
2024/01/25 15:13:20;;;;;;;13.97;4.47;;;;;;;8.46;100.00;102502.16;6192796;28;20229;-75
2024/01/25 15:16:42;;;;;;;10.23;4.07;;;;;;;8.52;100.00;102505.38;6196092;28;20588;-70
2024/01/25 15:20:05;;;;;;;16.50;5.87;;;;;;;8.38;100.00;102501.72;6209978;28;20345;-70
2024/01/25 15:23:26;;;;;;;13.27;4.60;;;;;;;8.36;100.00;102495.53;6208217;28;20487;-70
2024/01/25 15:26:47;;;;;;;12.17;4.60;;;;;;;8.27;100.00;102498.72;6213999;28;20233;-72